Time;durP1;ratioP1;P1;durP2;ratioP2;P2;SDS_P1;SDS_P2;PMS_P1;PMS_P2;Temp;Humidity;BMP_temperature;BMP_pressure;BME280_temperature;BME280_humidity;BME280_pressure;Samples;Min_cycle;Max_cycle;Signal;HPM_P1;HPM_P2
2022/12/20 00:01:21;;;;;;;;;6.67;6.33;;;;;12.05;100.00;101047.25;5102015;27;45304;-82
2022/12/20 00:03:51;;;;;;;;;7.00;6.00;;;;;11.94;100.00;101021.84;5094242;27;45349;-83
2022/12/20 00:06:18;;;;;;;;;8.00;7.00;;;;;12.26;100.00;101077.78;5096794;27;45387;-82
2022/12/20 00:08:44;;;;;;;;;10.33;9.00;;;;;12.11;100.00;101035.94;5100388;27;46933;-82
2022/12/20 00:11:13;;;;;;;;;6.67;6.67;;;;;11.92;100.00;100994.59;5101521;27;45423;-82
2022/12/20 00:13:38;;;;;;;;;8.67;8.67;;;;;12.26;100.00;101040.50;5101456;27;45399;-82
2022/12/20 00:16:13;;;;;;;;;6.67;6.67;;;;;12.34;100.00;101067.09;5101482;27;45289;-82
2022/12/20 00:18:40;;;;;;;;;8.00;7.33;;;;;12.10;100.00;101012.13;5101684;27;45583;-83
2022/12/20 00:21:09;;;;;;;;;7.33;7.33;;;;;12.28;100.00;101040.31;5097644;27;45220;-82
2022/12/20 00:23:37;;;;;;;;;6.00;6.00;;;;;12.38;100.00;101046.22;5091565;27;45460;-82
2022/12/20 00:26:15;;;;;;;;;8.33;7.67;;;;;12.08;100.00;100998.16;5101128;27;46101;-83
2022/12/20 00:28:44;;;;;;;;;7.67;7.67;;;;;12.07;100.00;100992.00;5101198;27;45731;-83
2022/12/20 00:31:11;;;;;;;;;6.00;6.00;;;;;12.41;100.00;101043.19;5116833;27;45456;-82
2022/12/20 00:33:38;;;;;;;;;8.33;8.33;;;;;12.55;100.00;101073.59;5101434;27;45312;-81
2022/12/20 00:36:05;;;;;;;;;3.67;2.67;;;;;12.19;100.00;101010.22;5101475;27;45472;-81
2022/12/20 00:38:31;;;;;;;;;8.00;7.33;;;;;12.29;100.00;101021.47;5101228;27;45230;-81
2022/12/20 00:41:09;;;;;;;;;7.67;7.67;;;;;12.26;100.00;101008.50;5099963;27;45610;-82
2022/12/20 00:43:35;;;;;;;;;6.67;6.67;;;;;12.07;100.00;100980.53;5098421;27;45329;-82
2022/12/20 00:46:05;;;;;;;;;7.00;6.33;;;;;12.52;100.00;101054.44;5088966;27;45255;-83
2022/12/20 00:48:31;;;;;;;;;6.00;6.00;;;;;12.30;100.00;101007.13;5101052;27;45385;-82
2022/12/20 00:51:03;;;;;;;;;6.67;6.67;;;;;12.17;100.00;100989.09;5101579;27;45320;-81
2022/12/20 00:53:30;;;;;;;;;9.00;8.33;;;;;12.49;100.00;101043.13;5099591;27;45450;-81
2022/12/20 00:55:58;;;;;;;;;9.00;9.00;;;;;12.32;100.00;101006.97;5101068;27;45203;-82
2022/12/20 00:58:27;;;;;;;;;14.67;14.00;;;;;12.46;100.00;101040.84;5100345;27;45415;-82
2022/12/20 01:00:53;;;;;;;;;7.33;7.33;;;;;12.53;100.00;101042.75;5100165;27;45581;-82
2022/12/20 01:03:18;;;;;;;;;6.67;6.67;;;;;12.34;100.00;101010.28;5101821;27;45267;-84
2022/12/20 01:05:55;;;;;;;;;7.67;7.67;;;;;12.38;100.00;101016.91;5100995;27;45298;-82
2022/12/20 01:08:22;;;;;;;;;5.00;5.00;;;;;12.19;100.00;100979.09;5097145;27;46181;-83
2022/12/20 01:10:58;;;;;;;;;6.00;6.00;;;;;12.75;100.00;101060.56;5096753;27;45341;-81
2022/12/20 01:13:24;;;;;;;;;7.00;5.00;;;;;12.60;100.00;101033.88;5099993;27;45411;-83
2022/12/20 01:15:49;;;;;;;;;5.67;5.67;;;;;12.48;100.00;101006.81;5100018;27;46384;-81
2022/12/20 01:18:15;;;;;;;;;6.00;6.00;;;;;12.42;100.00;100996.88;5100587;27;47305;-83
2022/12/20 01:20:40;;;;;;;;;5.00;5.00;;;;;12.85;100.00;101056.81;5101988;27;45331;-82
2022/12/20 01:23:05;;;;;;;;;4.00;4.00;;;;;12.48;100.00;100993.50;5101091;27;45528;-82
2022/12/20 01:25:31;;;;;;;;;6.00;6.00;;;;;12.57;100.00;101006.75;5100765;27;45461;-82
2022/12/20 01:28:03;;;;;;;;;6.67;5.67;;;;;12.57;100.00;101009.44;5100262;27;46623;-82
2022/12/20 01:30:29;;;;;;;;;6.00;6.00;;;;;12.52;100.00;101009.13;5100540;27;45388;-83
2022/12/20 01:32:56;;;;;;;;;4.00;4.00;;;;;12.53;100.00;101011.63;5100278;27;45859;-82
2022/12/20 01:35:22;;;;;;;;;5.67;5.67;;;;;12.37;100.00;100986.75;5098790;27;46271;-83
2022/12/20 01:37:47;;;;;;;;;6.33;6.33;;;;;12.58;100.00;101009.25;5099973;27;46279;-81
2022/12/20 01:40:12;;;;;;;;;4.33;4.33;;;;;12.69;100.00;101015.16;5100567;27;45288;-82
2022/12/20 01:42:38;;;;;;;;;5.67;5.67;;;;;12.86;100.00;101047.81;5100315;27;45365;-82
2022/12/20 01:45:11;;;;;;;;;5.00;5.00;;;;;12.84;100.00;101044.50;5103448;27;46116;-81
2022/12/20 01:47:37;;;;;;;;;3.00;3.00;;;;;12.91;100.00;101048.09;5087199;27;45405;-83
2022/12/20 01:50:04;;;;;;;;;6.00;5.00;;;;;12.88;100.00;101043.13;5100045;27;45440;-83
2022/12/20 01:52:43;;;;;;;;;7.00;5.33;;;;;12.82;100.00;101046.53;5099034;27;45269;-83
2022/12/20 01:55:17;;;;;;;;;6.00;5.00;;;;;12.76;100.00;101040.06;5099976;27;45278;-81
2022/12/20 01:57:59;;;;;;;;;5.33;5.33;;;;;12.71;100.00;101035.28;5089667;27;45476;-82
2022/12/20 02:00:25;;;;;;;;;5.00;5.00;;;;;12.68;100.00;101040.97;5099621;27;45413;-81
2022/12/20 02:02:50;;;;;;;;;5.00;5.00;;;;;12.72;100.00;101047.59;5101401;27;45337;-83
2022/12/20 02:05:21;;;;;;;;;6.00;6.00;;;;;12.75;100.00;101051.72;5099793;27;45782;-83
2022/12/20 02:07:50;;;;;;;;;4.00;4.00;;;;;12.73;100.00;101043.94;5100174;27;45722;-81
2022/12/20 02:10:18;;;;;;;;;5.00;5.00;;;;;12.70;100.00;101036.31;5102622;27;45708;-81
2022/12/20 02:12:46;;;;;;;;;6.33;5.33;;;;;12.57;100.00;101017.44;5100475;27;45368;-82
2022/12/20 02:15:40;;;;;;;;;5.00;5.00;;;;;12.67;100.00;101049.16;5100553;27;45383;-81
2022/12/20 02:18:15;;;;;;;;;4.00;4.00;;;;;12.69;100.00;101047.97;5096057;27;45466;-81
2022/12/20 02:20:59;;;;;;;;;5.67;5.67;;;;;12.67;100.00;101036.66;5100464;27;45266;-81
2022/12/20 02:23:44;;;;;;;;;6.67;6.67;;;;;12.66;100.00;101034.16;5099312;27;45349;-81
2022/12/20 02:26:47;;;;;;;;;5.33;5.00;;;;;12.65;100.00;101022.66;5100623;27;45330;-81
2022/12/20 02:29:50;;;;;;;;;5.00;5.00;;;;;12.62;100.00;101031.03;5098187;27;48331;-81
2022/12/20 02:32:21;;;;;;;;;5.67;5.67;;;;;12.57;100.00;101022.75;5099499;27;45672;-81
2022/12/20 02:34:46;;;;;;;;;4.00;4.00;;;;;12.53;100.00;101010.78;5099801;27;45316;-81
2022/12/20 02:37:12;;;;;;;;;3.67;3.67;;;;;12.64;100.00;101029.03;5100628;27;45478;-82
2022/12/20 02:39:39;;;;;;;;;4.67;4.67;;;;;12.60;100.00;101012.53;5100178;27;46159;-82
2022/12/20 02:42:10;;;;;;;;;4.00;4.00;;;;;12.60;100.00;100993.88;5099571;27;45325;-82
2022/12/20 02:47:35;;;;;;;;;5.33;4.67;;;;;12.72;100.00;101014.78;5103165;27;45270;-81
2022/12/20 02:50:03;;;;;;;;;3.67;3.33;;;;;12.74;100.00;101005.59;5103476;27;45538;-82
2022/12/20 02:52:30;;;;;;;;;2.00;2.00;;;;;12.67;100.00;100988.66;5122720;27;45713;-82
2022/12/20 02:54:57;;;;;;;;;4.00;4.00;;;;;12.73;100.00;101001.28;5103527;27;45404;-81
2022/12/20 02:57:54;;;;;;;;;5.00;5.00;;;;;12.71;100.00;101008.63;5101418;27;47156;-81
2022/12/20 03:00:22;;;;;;;;;7.67;4.00;;;;;12.66;100.00;100996.84;5102575;27;45335;-81
2022/12/20 03:05:44;;;;;;;;;3.67;3.67;;;;;12.67;100.00;101002.00;5103100;27;45318;-81
2022/12/20 03:08:10;;;;;;;;;4.00;4.00;;;;;12.58;100.00;100979.09;5098990;27;45468;-82
2022/12/20 03:10:35;;;;;;;;;3.67;3.67;;;;;12.46;100.00;100968.88;5102638;27;45332;-82
2022/12/20 03:13:01;;;;;;;;;4.00;4.00;;;;;12.35;100.00;100966.63;5102053;27;45307;-81
2022/12/20 03:15:26;;;;;;;;;3.67;3.33;;;;;12.26;100.00;100957.88;5102804;27;45313;-81
2022/12/20 03:17:51;;;;;;;;;4.67;4.33;;;;;12.28;100.00;100973.69;5102609;27;45320;-82
2022/12/20 03:20:17;;;;;;;;;4.67;4.67;;;;;12.25;100.00;100977.53;5101288;27;48169;-81
2022/12/20 03:22:42;;;;;;;;;3.00;3.00;;;;;12.14;100.00;100972.63;5102479;27;45273;-81
2022/12/20 03:25:08;;;;;;;;;6.00;3.00;;;;;12.05;100.00;100971.81;5102664;27;45246;-81
2022/12/20 03:27:33;;;;;;;;;4.00;4.00;;;;;12.03;100.00;100973.88;5102145;27;45216;-82
2022/12/20 03:29:59;;;;;;;;;4.00;4.00;;;;;12.00;100.00;100978.53;5102217;27;46044;-81
2022/12/20 03:32:24;;;;;;;;;4.00;4.00;;;;;11.90;100.00;100977.09;5100854;27;45416;-82
2022/12/20 03:34:49;;;;;;;;;3.67;3.67;;;;;11.86;100.00;100985.44;5100979;27;45241;-81
2022/12/20 03:37:15;;;;;;;;;3.33;3.33;;;;;11.80;100.00;100978.19;5102050;27;45197;-81
2022/12/20 03:39:40;;;;;;;;;5.00;4.00;;;;;11.79;100.00;100986.34;5102068;27;45257;-81
2022/12/20 03:42:05;;;;;;;;;3.33;3.00;;;;;11.73;100.00;100980.72;5102079;27;45166;-81
2022/12/20 03:44:31;;;;;;;;;4.00;4.00;;;;;11.61;100.00;100966.97;5102094;27;45366;-81
2022/12/20 03:46:56;;;;;;;;;4.33;4.33;;;;;11.72;100.00;100988.88;5102081;27;45564;-81
2022/12/20 03:49:21;;;;;;;;;4.33;4.33;;;;;11.65;100.00;100983.44;5102012;27;45286;-82
2022/12/20 03:51:47;;;;;;;;;4.00;3.33;;;;;11.52;100.00;100972.53;5100516;27;45818;-81
2022/12/20 03:54:12;;;;;;;;;5.33;5.00;;;;;11.62;100.00;100986.44;5101901;27;45419;-81
2022/12/20 03:56:38;;;;;;;;;4.00;4.00;;;;;11.52;100.00;100978.66;5114599;27;46934;-81
2022/12/20 03:59:03;;;;;;;;;4.00;4.00;;;;;11.51;100.00;100977.00;5101700;27;45366;-81
2022/12/20 04:01:28;;;;;;;;;5.00;5.00;;;;;11.44;100.00;100958.22;5101971;27;45503;-81
2022/12/20 04:03:54;;;;;;;;;5.00;5.00;;;;;11.48;100.00;100967.53;5101981;27;45251;-81
2022/12/20 04:06:21;;;;;;;;;5.00;5.00;;;;;11.44;100.00;100960.88;5101473;27;45359;-82
2022/12/20 04:08:47;;;;;;;;;4.00;3.67;;;;;11.51;100.00;100963.69;5101711;27;45350;-81
2022/12/20 04:11:16;;;;;;;;;4.00;4.00;;;;;11.46;100.00;100948.25;5101448;27;46371;-81
2022/12/20 04:13:47;;;;;;;;;3.67;3.00;;;;;11.52;100.00;100956.56;5101727;27;45285;-81
2022/12/20 04:16:14;;;;;;;;;3.67;3.67;;;;;11.49;100.00;100966.53;5100240;27;45443;-81
2022/12/20 04:18:40;;;;;;;;;3.00;3.00;;;;;11.51;100.00;100962.84;5101431;27;45298;-81
2022/12/20 04:21:06;;;;;;;;;4.00;3.33;;;;;11.48;100.00;100959.56;5101330;27;45604;-81
2022/12/20 04:23:34;;;;;;;;;2.33;2.33;;;;;11.49;100.00;100963.88;5102260;27;45216;-81
2022/12/20 04:26:00;;;;;;;;;3.00;3.00;;;;;11.44;100.00;100954.75;5099610;27;46202;-81
2022/12/20 04:28:25;;;;;;;;;3.33;3.33;;;;;11.40;100.00;100940.97;5099698;27;47828;-81
2022/12/20 04:30:50;;;;;;;;;4.00;4.00;;;;;11.48;100.00;100956.06;5101114;27;45280;-81
2022/12/20 04:33:16;;;;;;;;;4.00;4.00;;;;;11.45;100.00;100945.75;5101471;27;45355;-81
2022/12/20 04:35:42;;;;;;;;;3.67;2.00;;;;;11.41;100.00;100931.16;5099826;27;47092;-81
2022/12/20 04:38:07;;;;;;;;;3.00;2.67;;;;;11.49;100.00;100941.75;5101229;27;45409;-81
2022/12/20 04:40:32;;;;;;;;;3.00;3.00;;;;;11.50;100.00;100948.75;5101049;27;45414;-81
2022/12/20 04:42:57;;;;;;;;;3.00;3.00;;;;;11.48;100.00;100938.28;5099862;27;45426;-80
2022/12/20 04:45:23;;;;;;;;;4.00;3.00;;;;;11.47;100.00;100927.78;5099691;27;46639;-81
2022/12/20 04:47:48;;;;;;;;;3.67;3.67;;;;;11.44;100.00;100920.97;5100925;27;45255;-81
2022/12/20 04:50:14;;;;;;;;;3.00;3.00;;;;;11.49;100.00;100929.28;5100934;27;45451;-81
2022/12/20 04:55:23;;;;;;;;;3.00;3.00;;;;;11.54;100.00;100946.53;5100960;27;45262;-81
2022/12/20 04:57:48;;;;;;;;;3.00;3.00;;;;;11.46;100.00;100924.28;5100422;27;45320;-81
2022/12/20 05:00:14;;;;;;;;;4.00;3.00;;;;;11.47;100.00;100919.81;5116434;27;45657;-81
2022/12/20 05:02:40;;;;;;;;;2.33;2.00;;;;;11.57;100.00;100925.75;5101103;27;45330;-81
2022/12/20 05:05:05;;;;;;;;;5.00;4.33;;;;;11.63;100.00;100932.19;5095836;27;45911;-81
2022/12/20 05:07:31;;;;;;;;;2.33;2.33;;;;;11.64;100.00;100917.06;5101910;27;46925;-81
2022/12/20 05:09:56;;;;;;;;;4.67;4.67;;;;;11.70;100.00;100933.13;5081138;27;45355;-81
2022/12/20 05:12:21;;;;;;;;;3.00;3.00;;;;;11.70;100.00;100925.13;5086749;27;45353;-81
2022/12/20 05:14:47;;;;;;;;;4.00;3.00;;;;;11.70;100.00;100914.50;5097418;27;45530;-81
2022/12/20 05:17:12;;;;;;;;;1.00;1.00;;;;;11.78;100.00;100920.75;5100888;27;45249;-82
2022/12/20 05:19:37;;;;;;;;;3.00;3.00;;;;;11.87;100.00;100917.03;5100316;27;45319;-81
2022/12/20 05:27:30;;;;;;;;;4.00;3.00;;;;;11.96;100.00;100902.66;5096202;27;45222;-82
2022/12/20 05:29:56;;;;;;;;;3.00;2.00;;;;;12.05;100.00;100914.06;5100407;27;45288;-82
2022/12/20 05:32:21;;;;;;;;;3.00;3.00;;;;;12.02;100.00;100902.94;5100629;27;45653;-82
2022/12/20 05:34:46;;;;;;;;;3.00;3.00;;;;;12.10;100.00;100910.91;5101183;27;45420;-82
2022/12/20 05:37:12;;;;;;;;;3.33;3.00;;;;;12.11;100.00;100901.88;5100687;27;45457;-81
2022/12/20 05:39:37;;;;;;;;;3.00;3.00;;;;;12.18;100.00;100908.13;5097064;27;45427;-83
2022/12/20 05:42:03;;;;;;;;;4.67;4.00;;;;;12.21;100.00;100907.78;5099928;27;45332;-82
2022/12/20 05:44:28;;;;;;;;;2.33;2.33;;;;;12.23;100.00;100896.94;5099239;27;46394;-83
2022/12/20 05:46:53;;;;;;;;;2.00;2.00;;;;;12.29;100.00;100901.56;5096380;27;48025;-83
2022/12/20 05:49:19;;;;;;;;;4.00;4.00;;;;;12.34;100.00;100907.19;5098139;27;45262;-83
2022/12/20 05:51:44;;;;;;;;;1.33;1.33;;;;;12.28;100.00;100888.41;5094981;27;45404;-82
2022/12/20 05:54:10;;;;;;;;;3.67;3.67;;;;;12.37;100.00;100905.97;5100337;27;45332;-82
2022/12/20 05:56:35;;;;;;;;;3.33;3.33;;;;;12.36;100.00;100904.31;5100004;27;45460;-82
2022/12/20 05:59:00;;;;;;;;;4.00;4.00;;;;;12.36;100.00;100898.97;5087717;27;45429;-83
2022/12/20 06:01:26;;;;;;;;;2.67;2.67;;;;;12.50;100.00;100900.84;5100684;27;45235;-83
2022/12/20 06:03:51;;;;;;;;;3.00;3.00;;;;;12.44;100.00;100896.25;5095707;27;47507;-82
2022/12/20 06:06:17;;;;;;;;;5.00;4.33;;;;;12.39;100.00;100885.28;5086801;27;45906;-82
2022/12/20 06:08:42;;;;;;;;;2.00;2.00;;;;;12.39;100.00;100887.94;5099580;27;45420;-83
2022/12/20 06:11:08;;;;;;;;;2.00;2.00;;;;;12.50;100.00;100892.84;5100244;27;45289;-82
2022/12/20 06:13:33;;;;;;;;;2.00;2.00;;;;;12.53;100.00;100888.97;5092326;27;45365;-83
2022/12/20 06:15:59;;;;;;;;;4.00;2.00;;;;;12.58;100.00;100893.75;5094030;27;45297;-82
2022/12/20 06:18:25;;;;;;;;;5.00;4.00;;;;;12.57;100.00;100892.13;5100399;27;45718;-81
2022/12/20 06:20:51;;;;;;;;;2.67;2.00;;;;;12.61;100.00;100910.19;5103907;27;45285;-82
2022/12/20 06:23:17;;;;;;;;;2.00;2.00;;;;;12.59;100.00;100906.91;5105824;27;45214;-82
2022/12/20 06:25:42;;;;;;;;;3.00;3.00;;;;;12.66;100.00;100914.19;5105069;27;45523;-82
2022/12/20 06:28:08;;;;;;;;;6.00;3.67;;;;;12.61;100.00;100912.88;5101914;27;45372;-82
2022/12/20 06:30:33;;;;;;;;;1.00;1.00;;;;;12.64;100.00;100906.38;5106492;27;45386;-81
2022/12/20 06:32:59;;;;;;;;;3.00;3.00;;;;;12.64;100.00;100917.03;5096550;27;45479;-81
2022/12/20 06:35:24;;;;;;;;;2.33;2.33;;;;;12.54;100.00;100887.97;5097844;27;46307;-83
2022/12/20 06:37:50;;;;;;;;;5.00;5.00;;;;;12.54;100.00;100895.97;5098617;27;45399;-82
2022/12/20 06:40:15;;;;;;;;;3.00;3.00;;;;;12.57;100.00;100905.44;5097288;27;45374;-81
2022/12/20 06:42:41;;;;;;;;;2.00;1.33;;;;;12.57;100.00;100902.78;5095940;27;45463;-81
2022/12/20 06:45:07;;;;;;;;;5.00;4.00;;;;;12.62;100.00;100909.22;5103194;27;45439;-81
2022/12/20 06:47:33;;;;;;;;;4.33;3.00;;;;;12.64;100.00;100909.03;5103046;27;45256;-81
2022/12/20 06:49:58;;;;;;;;;3.33;3.33;;;;;12.52;100.00;100887.34;5117869;27;45630;-82
2022/12/20 06:52:23;;;;;;;;;2.67;2.33;;;;;12.56;100.00;100895.78;5103404;27;45357;-81
2022/12/20 06:54:49;;;;;;;;;2.67;2.67;;;;;12.60;100.00;100903.22;5101770;27;47179;-81
2022/12/20 06:57:14;;;;;;;;;3.67;3.67;;;;;12.53;100.00;100888.13;5103167;27;45407;-81
2022/12/20 06:59:39;;;;;;;;;3.00;3.00;;;;;12.55;100.00;100897.63;5102979;27;45217;-81
2022/12/20 07:02:05;;;;;;;;;3.00;3.00;;;;;12.49;100.00;100877.84;5104220;27;45305;-82
2022/12/20 07:04:30;;;;;;;;;3.00;3.00;;;;;12.66;100.00;100912.31;5101239;27;48390;-81
2022/12/20 07:06:56;;;;;;;;;6.00;5.00;;;;;12.57;100.00;100881.47;5102641;27;45195;-81
2022/12/20 07:09:22;;;;;;;;;3.00;3.00;;;;;12.58;100.00;100891.09;5103642;27;45331;-81
2022/12/20 07:11:47;;;;;;;;;3.00;3.00;;;;;12.63;100.00;100896.69;5118524;27;46028;-81
2022/12/20 07:14:12;;;;;;;;;8.00;6.00;;;;;12.61;100.00;100888.06;5102460;27;45423;-81
2022/12/20 07:16:40;;;;;;;;;7.33;7.33;;;;;12.67;100.00;100892.66;5102911;27;45356;-81
2022/12/20 07:19:05;;;;;;;;;5.33;5.33;;;;;12.67;100.00;100900.66;5102200;27;45446;-82
2022/12/20 07:21:31;;;;;;;;;2.00;2.00;;;;;12.67;100.00;100891.81;5087736;27;46184;-80
2022/12/20 07:23:56;;;;;;;;;6.00;5.67;;;;;12.71;100.00;100903.78;5107613;27;47121;-80
2022/12/20 07:26:21;;;;;;;;;4.00;4.00;;;;;12.69;100.00;100900.47;5105984;27;45327;-80
2022/12/20 07:28:47;;;;;;;;;4.00;4.00;;;;;12.65;100.00;100889.34;5094722;27;45286;-81
2022/12/20 07:31:12;;;;;;;;;2.00;2.00;;;;;12.64;100.00;100890.38;5108186;27;45304;-81
2022/12/20 07:33:38;;;;;;;;;3.00;3.00;;;;;12.64;100.00;100895.69;5107848;27;45370;-81
2022/12/20 07:36:09;;;;;;;;;2.67;2.67;;;;;12.68;100.00;100896.97;5105358;27;45288;-81
2022/12/20 07:38:36;;;;;;;;;4.00;3.00;;;;;12.70;100.00;100894.13;5112713;27;45327;-81
2022/12/20 07:41:09;;;;;;;;;3.33;3.33;;;;;12.71;100.00;100891.28;5109349;27;45488;-81
2022/12/20 07:43:34;;;;;;;;;4.00;4.00;;;;;12.73;100.00;100897.25;5107704;27;46251;-80
2022/12/20 07:46:00;;;;;;;;;5.00;3.33;;;;;12.72;100.00;100898.25;5100204;27;45272;-81
2022/12/20 07:48:25;;;;;;;;;3.67;3.67;;;;;12.75;100.00;100908.56;5103630;27;45338;-80
2022/12/20 07:50:53;;;;;;;;;4.00;4.00;;;;;12.69;100.00;100897.81;5103268;27;45467;-80
2022/12/20 07:53:20;;;;;;;;;3.00;3.00;;;;;12.75;100.00;100895.22;5102051;27;45287;-80
2022/12/20 07:55:47;;;;;;;;;3.67;3.67;;;;;12.78;100.00;100903.88;5102810;27;45156;-80
2022/12/20 07:58:16;;;;;;;;;3.67;3.67;;;;;12.71;100.00;100890.44;5100679;27;45678;-80
2022/12/20 08:00:42;;;;;;;;;3.33;3.33;;;;;12.80;100.00;100909.84;5099821;27;45595;-80
2022/12/20 08:03:30;;;;;;;;;4.67;4.00;;;;;12.73;100.00;100899.09;5106547;27;45323;-80
2022/12/20 08:05:59;;;;;;;;;4.00;4.00;;;;;12.78;100.00;100906.53;5115492;27;45214;-79
2022/12/20 08:08:25;;;;;;;;;5.33;5.33;;;;;12.74;100.00;100906.91;5114775;27;45318;-79
2022/12/20 08:10:51;;;;;;;;;5.00;5.00;;;;;12.78;100.00;100911.88;5110692;27;45358;-82
2022/12/20 08:13:17;;;;;;;;;7.33;7.33;;;;;12.83;100.00;100910.31;5111717;27;45329;-82
2022/12/20 08:15:42;;;;;;;;;3.67;3.67;;;;;12.70;100.00;100894.97;5129526;27;46087;-82
2022/12/20 08:18:07;;;;;;;;;6.00;4.00;;;;;12.77;100.00;100915.53;5110059;27;45343;-80
2022/12/20 08:20:33;;;;;;;;;4.67;4.67;;;;;12.75;100.00;100911.22;5092709;28;46165;-79
2022/12/20 08:22:58;;;;;;;;;4.00;2.00;;;;;12.81;100.00;100914.19;5106201;27;46839;-80
2022/12/20 08:25:24;;;;;;;;;3.00;3.00;;;;;12.78;100.00;100910.03;5093950;27;45486;-81
2022/12/20 08:27:49;;;;;;;;;3.67;3.67;;;;;12.70;100.00;100904.78;5108894;27;45284;-80
2022/12/20 08:30:15;;;;;;;;;3.67;3.67;;;;;12.71;100.00;100912.63;5110155;27;45296;-79
2022/12/20 08:32:41;;;;;;;;;3.33;3.33;;;;;12.69;100.00;100919.97;5107745;27;45307;-80
2022/12/20 08:35:06;;;;;;;;;4.00;4.00;;;;;12.71;100.00;100909.09;5106983;27;45231;-79
2022/12/20 08:37:32;;;;;;;;;3.00;3.00;;;;;12.75;100.00;100913.06;5105645;27;45172;-79
2022/12/20 08:39:57;;;;;;;;;6.00;5.00;;;;;12.74;100.00;100914.91;5103086;27;45449;-79
2022/12/20 08:42:23;;;;;;;;;5.00;5.00;;;;;12.81;100.00;100914.19;5092635;27;45343;-79
2022/12/20 08:44:48;;;;;;;;;6.67;6.67;;;;;12.79;100.00;100897.53;5107783;27;45369;-78
2022/12/20 08:47:14;;;;;;;;;5.00;5.00;;;;;12.82;100.00;100903.31;5093364;27;45409;-78
2022/12/20 08:49:39;;;;;;;;;3.00;3.00;;;;;12.88;100.00;100921.22;5105337;27;45404;-79
2022/12/20 08:52:04;;;;;;;;;6.67;6.67;;;;;12.84;100.00;100900.47;5104908;27;45396;-77
2022/12/20 08:54:30;;;;;;;;;3.00;3.00;;;;;12.85;100.00;100902.97;5105206;27;45407;-79
2022/12/20 08:56:55;;;;;;;;;3.33;3.00;;;;;12.82;100.00;100902.50;5106214;27;45432;-79
2022/12/20 08:59:21;;;;;;;;;4.00;3.00;;;;;12.90;100.00;100920.25;5105624;27;45323;-77
2022/12/20 09:01:46;;;;;;;;;53.50;44.00;;;;;12.92;100.00;100913.69;5101163;27;46324;-81
2022/12/20 09:04:12;;;;;;;;;7.67;7.00;;;;;12.85;100.00;100894.97;5101230;27;45950;-81
2022/12/20 09:06:37;;;;;;;;;5.00;5.00;;;;;12.92;100.00;100888.84;5099906;27;45348;-79
2022/12/20 09:09:03;;;;;;;;;5.00;5.00;;;;;12.95;100.00;100904.50;5097716;27;45945;-80
2022/12/20 09:11:29;;;;;;;;;5.00;5.00;;;;;13.15;100.00;100918.09;5099657;27;46263;-81
2022/12/20 09:13:56;;;;;;;;;3.33;3.33;;;;;13.19;100.00;100918.53;5100874;27;45168;-80
2022/12/20 09:16:27;;;;;;;;;6.00;3.67;;;;;13.18;100.00;100917.72;5100697;27;45237;-80
2022/12/20 09:18:56;;;;;;;;;4.33;4.33;;;;;13.25;100.00;100923.13;5101122;27;45317;-81
2022/12/20 09:21:22;;;;;;;;;3.33;3.33;;;;;13.13;100.00;100904.94;5102292;27;45444;-84
2022/12/20 09:23:51;;;;;;;;;5.33;4.67;;;;;13.28;100.00;100933.44;5082947;27;45245;-78
2022/12/20 09:26:17;;;;;;;;;3.33;3.33;;;;;13.29;100.00;100936.94;5100840;27;45588;-80
2022/12/20 09:28:44;;;;;;;;;4.00;3.67;;;;;13.24;100.00;100932.16;5093015;27;46570;-81
2022/12/20 09:31:14;;;;;;;;;4.67;4.67;;;;;13.26;100.00;100930.94;5093833;27;45688;-81
2022/12/20 09:33:40;;;;;;;;;2.67;2.67;;;;;13.22;100.00;100931.50;5097839;27;45554;-80
2022/12/20 09:36:09;;;;;;;;;3.67;3.67;;;;;13.17;100.00;100939.25;5100154;27;45376;-80
2022/12/20 09:38:35;;;;;;;;;3.33;3.33;;;;;13.10;100.00;100933.81;5099469;27;45459;-79
2022/12/20 09:41:04;;;;;;;;;6.33;5.00;;;;;12.95;100.00;100929.34;5099078;27;45435;-78
2022/12/20 09:43:30;;;;;;;;;3.33;3.33;;;;;12.94;100.00;100938.38;5077863;27;45436;-79
2022/12/20 09:45:59;;;;;;;;;5.00;5.00;;;;;12.84;100.00;100935.16;5079558;27;45768;-80
2022/12/20 09:48:30;;;;;;;;;5.00;5.00;;;;;12.81;100.00;100946.19;5087814;27;45503;-80
2022/12/20 09:51:06;;;;;;;;;4.00;4.00;;;;;12.79;100.00;100942.88;5098861;27;47344;-80
2022/12/20 09:53:50;;;;;;;;;6.00;5.00;;;;;12.73;100.00;100952.44;5086239;27;45398;-80
2022/12/20 09:56:28;;;;;;;;;5.33;5.33;;;;;12.71;100.00;100954.44;5097962;27;45357;-79
2022/12/20 09:59:17;;;;;;;;;5.00;5.00;;;;;12.62;100.00;100937.72;5099870;27;45546;-79
2022/12/20 10:01:45;;;;;;;;;10.00;7.00;;;;;12.55;100.00;100932.28;5100122;27;45450;-78
2022/12/20 10:04:32;;;;;;;;;7.33;6.33;;;;;12.56;100.00;100935.75;5099710;27;45317;-76
2022/12/20 10:07:32;;;;;;;;;6.67;5.67;;;;;12.55;100.00;100928.78;5099774;27;45507;-78
2022/12/20 10:10:33;;;;;;;;;5.00;4.67;;;;;12.56;100.00;100941.94;5098208;27;46002;-79
2022/12/20 10:13:21;;;;;;;;;4.00;4.00;;;;;12.50;100.00;100927.50;5099257;27;45674;-79
2022/12/20 10:15:53;;;;;;;;;6.67;6.67;;;;;12.52;100.00;100923.81;5100337;27;45652;-79
2022/12/20 10:18:47;;;;;;;;;9.00;8.00;;;;;12.51;100.00;100933.66;5098569;27;45165;-78
2022/12/20 10:21:40;;;;;;;;;7.33;5.67;;;;;12.48;100.00;100924.19;5099611;27;45789;-79
2022/12/20 10:24:29;;;;;;;;;7.00;7.00;;;;;12.41;100.00;100931.25;5099453;27;45372;-78
2022/12/20 10:26:55;;;;;;;;;7.00;7.00;;;;;12.44;100.00;100933.56;5094989;27;45276;-78
2022/12/20 10:29:20;;;;;;;;;9.00;6.00;;;;;12.39;100.00;100924.47;5092835;27;45283;-79
2022/12/20 10:31:51;;;;;;;;;5.67;5.67;;;;;12.40;100.00;100932.28;5079320;27;45299;-80
2022/12/20 10:34:17;;;;;;;;;4.33;4.33;;;;;12.39;100.00;100930.59;5085149;27;48340;-80
2022/12/20 10:36:42;;;;;;;;;5.33;5.00;;;;;12.37;100.00;100928.09;5099536;27;45330;-79
2022/12/20 10:39:09;;;;;;;;;7.00;6.00;;;;;12.41;100.00;100923.25;5094503;27;45484;-79
2022/12/20 10:41:41;;;;;;;;;6.33;5.33;;;;;12.46;100.00;100917.38;5095399;27;45467;-78
2022/12/20 10:44:28;;;;;;;;;5.33;5.33;;;;;12.50;100.00;100911.50;5096331;27;48351;-78
2022/12/20 10:46:57;;;;;;;;;6.67;6.67;;;;;12.58;100.00;100907.09;5088799;27;45526;-78
2022/12/20 10:49:35;;;;;;;;;5.67;5.67;;;;;12.61;100.00;100906.72;5094778;27;45349;-80
2022/12/20 10:52:02;;;;;;;;;6.67;6.67;;;;;12.59;100.00;100909.56;5096697;27;47055;-78
2022/12/20 10:54:35;;;;;;;;;6.00;6.00;;;;;12.58;100.00;100907.09;5097256;27;46879;-79
2022/12/20 10:57:13;;;;;;;;;6.33;6.33;;;;;12.56;100.00;100915.28;5098891;27;45357;-78
2022/12/20 10:59:46;;;;;;;;;7.00;6.33;;;;;12.52;100.00;100902.50;5101672;27;45277;-79
2022/12/20 11:02:32;;;;;;;;;6.67;5.00;;;;;12.57;100.00;100921.44;5084329;27;45497;-79
2022/12/20 11:05:11;;;;;;;;;5.00;5.00;;;;;12.52;100.00;100908.66;5086056;27;45357;-78
2022/12/20 11:07:59;;;;;;;;;6.00;6.00;;;;;12.50;100.00;100890.19;5105908;27;45301;-81
2022/12/20 11:10:28;;;;;;;;;5.67;5.00;;;;;12.52;100.00;100897.16;5111001;27;45207;-81
2022/12/20 11:12:58;;;;;;;;;6.00;6.00;;;;;12.58;100.00;100902.59;5102139;27;45258;-79
2022/12/20 11:15:28;;;;;;;;;6.67;6.67;;;;;12.54;100.00;100901.28;5093896;27;45420;-81
2022/12/20 11:18:03;;;;;;;;;7.33;7.33;;;;;12.47;100.00;100887.03;5103240;27;45200;-79
2022/12/20 11:21:10;;;;;;;;;7.67;7.67;;;;;12.56;100.00;100903.78;5089996;27;45330;-79
2022/12/20 11:23:50;;;;;;;;;7.00;7.00;;;;;12.47;100.00;100892.38;5036604;28;45392;-79
2022/12/20 11:26:35;;;;;;;;;8.00;8.00;;;;;12.53;100.00;100898.81;5035040;28;46251;-80
2022/12/20 11:29:36;;;;;;;;;7.00;7.00;;;;;12.46;100.00;100890.72;5088417;27;45308;-79
2022/12/20 11:32:16;;;;;;;;;7.33;7.33;;;;;12.51;100.00;100893.66;5093849;27;45464;-79
2022/12/20 11:34:41;;;;;;;;;5.33;5.00;;;;;12.50;100.00;100884.84;5088748;27;45495;-78
2022/12/20 11:37:23;;;;;;;;;7.33;6.67;;;;;12.50;100.00;100890.19;5100779;27;47002;-80
2022/12/20 11:40:30;;;;;;;;;8.33;7.00;;;;;12.50;100.00;100886.69;5092566;27;45679;-80